createdAt,value
2023-04-11T00:01:43.843Z,21.80
2023-04-11T00:04:17.952Z,23.20
2023-04-11T00:06:51.872Z,21.20
2023-04-11T00:09:25.736Z,19.00
2023-04-11T00:12:02.955Z,19.40
2023-04-11T00:14:36.766Z,20.90
2023-04-11T00:17:13.223Z,23.00
2023-04-11T00:19:47.525Z,18.70
2023-04-11T00:22:24.633Z,19.00
2023-04-11T00:27:30.846Z,16.90
2023-04-11T00:30:04.612Z,18.00
2023-04-11T00:32:38.788Z,22.30
2023-04-11T00:35:13.457Z,20.60
2023-04-11T00:37:47.679Z,19.00
2023-04-11T00:40:21.615Z,16.00
2023-04-11T00:42:55.623Z,16.70
2023-04-11T00:45:29.598Z,19.70
2023-04-11T00:48:03.584Z,20.00
2023-04-11T00:50:37.297Z,20.50
2023-04-11T00:53:12.124Z,19.80
2023-04-11T00:55:46.135Z,18.10
2023-04-11T00:58:19.834Z,17.60
2023-04-11T01:00:53.518Z,27.00
2023-04-11T01:03:27.569Z,21.30
2023-04-11T01:06:01.463Z,19.30
2023-04-11T01:08:36.014Z,23.60
2023-04-11T01:11:11.096Z,20.20
2023-04-11T01:13:45.407Z,21.90
2023-04-11T01:16:21.942Z,25.90
2023-04-11T01:18:56.405Z,23.00
2023-04-11T01:21:30.487Z,27.10
2023-04-11T01:24:04.458Z,23.20
2023-04-11T01:26:38.045Z,22.30
2023-04-11T01:29:12.104Z,23.70
2023-04-11T01:31:47.045Z,23.40
2023-04-11T01:34:21.453Z,21.40
2023-04-11T01:36:55.225Z,21.80
2023-04-11T01:39:29.257Z,21.50
2023-04-11T01:42:04.607Z,23.00
2023-04-11T01:44:39.147Z,28.20
2023-04-11T01:47:12.882Z,24.20
2023-04-11T01:49:47.667Z,26.00
2023-04-11T01:52:21.579Z,22.10
2023-04-11T01:54:55.517Z,26.00
2023-04-11T01:57:29.960Z,21.40
2023-04-11T02:00:04.593Z,22.30
2023-04-11T02:02:38.422Z,25.20
2023-04-11T02:05:13.504Z,24.20
2023-04-11T02:07:47.448Z,23.50
2023-04-11T02:10:21.321Z,26.80
2023-04-11T02:12:55.238Z,26.00
2023-04-11T02:15:29.487Z,25.50
2023-04-11T02:18:03.033Z,30.20
2023-04-11T02:20:37.868Z,23.70
2023-04-11T02:23:11.744Z,22.90
2023-04-11T02:25:46.162Z,21.40
2023-04-11T02:28:20.093Z,22.20
2023-04-11T02:30:54.448Z,24.20
2023-04-11T02:33:28.145Z,26.90
2023-04-11T02:36:04.230Z,24.70
2023-04-11T02:38:38.596Z,23.60
2023-04-11T02:41:12.742Z,22.20
2023-04-11T02:43:47.126Z,22.20
2023-04-11T02:46:21.357Z,24.60
2023-04-11T02:48:55.327Z,24.80
2023-04-11T02:51:29.483Z,24.30
2023-04-11T02:54:03.342Z,24.80
2023-04-11T02:56:39.330Z,23.20
2023-04-11T02:59:13.161Z,29.60
2023-04-11T03:01:47.399Z,23.60
2023-04-11T03:04:21.281Z,24.40
2023-04-11T03:06:55.452Z,26.70
2023-04-11T03:09:29.111Z,22.80
2023-04-11T03:12:02.992Z,24.10
2023-04-11T03:14:36.681Z,24.20
2023-04-11T03:17:10.693Z,22.10
2023-04-11T03:19:44.458Z,20.10
2023-04-11T03:22:18.559Z,23.20
2023-04-11T03:24:52.252Z,20.70
2023-04-11T03:27:25.876Z,23.30
2023-04-11T03:29:59.657Z,22.70
2023-04-11T03:32:33.574Z,26.00
2023-04-11T03:35:09.286Z,24.50
2023-04-11T03:37:42.976Z,23.70
2023-04-11T03:40:18.927Z,24.10
2023-04-11T03:42:53.556Z,25.70
2023-04-11T03:45:28.425Z,22.50
2023-04-11T03:48:02.375Z,22.90
2023-04-11T03:50:37.372Z,18.90
2023-04-11T03:53:11.532Z,18.70
2023-04-11T03:55:47.069Z,17.60
2023-04-11T03:58:22.024Z,18.90
2023-04-11T04:00:55.946Z,21.70
2023-04-11T04:03:30.027Z,22.50
2023-04-11T04:06:14.820Z,15.90
2023-04-11T04:08:49.817Z,17.80
2023-04-11T04:11:24.324Z,17.80
2023-04-11T04:13:58.818Z,16.50
2023-04-11T04:16:34.777Z,19.20
2023-04-11T04:19:11.162Z,15.20
2023-04-11T04:21:47.890Z,18.90
2023-04-11T04:24:21.738Z,16.70
2023-04-11T04:26:58.375Z,16.20
2023-04-11T04:29:39.116Z,16.40
2023-04-11T04:32:15.231Z,17.70
2023-04-11T04:34:50.368Z,16.60
2023-04-11T04:37:28.680Z,15.90
2023-04-11T04:40:08.836Z,14.40
2023-04-11T04:42:45.865Z,15.20
2023-04-11T04:45:21.322Z,15.30
2023-04-11T04:47:56.111Z,16.20
2023-04-11T04:50:30.396Z,13.00
2023-04-11T04:53:04.642Z,14.60
2023-04-11T04:55:38.631Z,15.30
2023-04-11T04:58:13.267Z,16.20
2023-04-11T05:00:50.087Z,14.30
2023-04-11T05:03:24.547Z,14.00
2023-04-11T05:06:01.771Z,20.20
2023-04-11T05:08:36.225Z,12.50
2023-04-11T05:11:10.290Z,13.20
2023-04-11T05:13:43.903Z,13.50
2023-04-11T05:16:18.105Z,13.80
2023-04-11T05:18:51.705Z,9.80
2023-04-11T05:21:25.686Z,10.00
2023-04-11T05:23:59.391Z,11.00
2023-04-11T05:26:33.472Z,10.10
2023-04-11T05:29:07.531Z,11.30
2023-04-11T05:31:41.764Z,9.70
2023-04-11T05:34:16.945Z,10.10
2023-04-11T05:36:51.795Z,8.90
2023-04-11T05:39:25.887Z,9.40
2023-04-11T05:42:00.029Z,11.10
2023-04-11T05:44:33.952Z,8.70
2023-04-11T05:47:07.641Z,6.70
2023-04-11T05:49:42.753Z,6.20
2023-04-11T05:52:17.017Z,4.00
2023-04-11T05:54:58.505Z,3.90
2023-04-11T05:57:32.361Z,4.00
2023-04-11T06:00:13.257Z,5.60
2023-04-11T06:02:48.278Z,9.10
2023-04-11T06:05:22.805Z,4.30
2023-04-11T06:07:59.256Z,4.40
2023-04-11T06:10:34.207Z,2.60
2023-04-11T06:13:09.413Z,5.30
2023-04-11T06:15:43.524Z,3.30
2023-04-11T06:18:17.460Z,2.80
2023-04-11T06:20:51.453Z,2.30
2023-04-11T06:23:25.443Z,3.60
2023-04-11T06:26:01.640Z,4.70
2023-04-11T06:28:35.767Z,4.30
2023-04-11T06:31:13.006Z,4.10
2023-04-11T06:33:47.052Z,4.20
2023-04-11T06:36:21.081Z,4.90
2023-04-11T06:38:54.800Z,4.80
2023-04-11T06:41:29.315Z,3.50
2023-04-11T06:44:03.464Z,4.70
2023-04-11T06:46:37.284Z,5.40
2023-04-11T06:49:12.314Z,3.80
2023-04-11T06:51:47.755Z,4.30
2023-04-11T06:54:24.673Z,3.70
2023-04-11T06:56:59.618Z,4.30
2023-04-11T06:59:34.017Z,7.90
2023-04-11T07:02:08.407Z,3.60
2023-04-11T07:04:42.820Z,3.30
2023-04-11T07:07:17.495Z,4.10
2023-04-11T07:09:51.703Z,4.80
2023-04-11T07:12:25.480Z,5.60
2023-04-11T07:14:59.639Z,9.30
2023-04-11T07:17:34.049Z,4.00
2023-04-11T07:20:12.287Z,5.50
2023-04-11T07:22:46.824Z,4.70
2023-04-11T07:25:23.198Z,6.10
2023-04-11T07:27:57.590Z,5.20
2023-04-11T07:33:06.214Z,7.20
2023-04-11T07:35:40.332Z,6.50
2023-04-11T07:38:16.196Z,4.20
2023-04-11T07:40:50.674Z,4.40
2023-04-11T07:43:25.666Z,10.60
2023-04-11T07:46:00.390Z,9.20
2023-04-11T07:48:34.953Z,5.20
2023-04-11T07:51:09.848Z,4.70
2023-04-11T07:53:43.609Z,6.50
2023-04-11T07:56:18.714Z,5.70
2023-04-11T07:58:53.383Z,5.90
2023-04-11T08:01:28.475Z,9.50
2023-04-11T08:04:27.736Z,5.50
2023-04-11T08:07:04.027Z,9.90
2023-04-11T08:09:42.992Z,7.10
2023-04-11T08:12:17.259Z,4.70
2023-04-11T08:14:55.411Z,4.80
2023-04-11T08:17:29.922Z,5.70
2023-04-11T08:20:05.633Z,5.80
2023-04-11T08:22:42.626Z,9.50
2023-04-11T08:25:19.704Z,10.20
2023-04-11T08:27:56.278Z,6.30
2023-04-11T08:30:30.661Z,5.80
2023-04-11T08:33:05.207Z,5.00
2023-04-11T08:35:43.580Z,5.90
2023-04-11T08:38:19.337Z,11.50
2023-04-11T08:43:26.395Z,4.90
2023-04-11T08:46:00.550Z,5.60
2023-04-11T08:48:34.488Z,4.60
2023-04-11T08:51:18.511Z,4.00
2023-04-11T08:54:14.146Z,6.50
2023-04-11T08:56:51.936Z,6.60
2023-04-11T08:59:27.852Z,6.90
2023-04-11T09:02:25.274Z,6.40
2023-04-11T09:04:59.889Z,9.10
2023-04-11T09:07:35.672Z,8.30
2023-04-11T09:10:26.430Z,3.90
2023-04-11T09:13:01.146Z,6.90
2023-04-11T09:15:37.292Z,4.60
2023-04-11T09:18:11.119Z,6.70
2023-04-11T09:20:45.277Z,9.10
2023-04-11T09:23:32.059Z,3.60
2023-04-11T09:26:08.675Z,5.80
2023-04-11T09:28:53.142Z,5.10
2023-04-11T09:31:44.772Z,7.80
2023-04-11T09:34:28.548Z,3.90
2023-04-11T09:37:04.526Z,5.20
2023-04-11T09:39:38.390Z,3.40
2023-04-11T09:42:27.316Z,4.90
2023-04-11T09:45:01.539Z,15.00
2023-04-11T09:47:37.912Z,2.50
2023-04-11T09:52:47.874Z,5.40
2023-04-11T09:55:26.105Z,5.20
2023-04-11T09:58:02.967Z,3.20
2023-04-11T10:00:36.887Z,4.50
2023-04-11T10:03:10.786Z,4.60
2023-04-11T10:05:45.758Z,8.40
2023-04-11T10:08:29.021Z,2.70
2023-04-11T10:11:07.867Z,5.90
2023-04-11T10:13:46.498Z,3.00
2023-04-11T10:16:22.945Z,3.80
2023-04-11T10:19:27.769Z,4.70
2023-04-11T10:22:04.816Z,3.70
2023-04-11T10:24:40.625Z,10.00
2023-04-11T10:27:14.449Z,3.70
2023-04-11T10:29:55.028Z,3.60
2023-04-11T10:32:29.974Z,4.20
2023-04-11T10:35:26.331Z,6.20
2023-04-11T10:38:00.460Z,11.70
2023-04-11T10:40:34.968Z,5.70
2023-04-11T10:46:29.471Z,6.70
2023-04-11T10:49:02.748Z,3.10
2023-04-11T10:51:35.129Z,10.80
2023-04-11T10:54:26.477Z,7.80
2023-04-11T10:56:58.554Z,5.40
2023-04-11T11:00:00.833Z,8.30
2023-04-11T11:02:43.155Z,6.00
2023-04-11T11:05:25.186Z,6.30
2023-04-11T11:07:55.982Z,8.00
2023-04-11T11:10:46.875Z,6.60
2023-04-11T11:13:19.796Z,14.30
2023-04-11T11:15:52.794Z,5.30
2023-04-11T11:18:23.383Z,3.90
2023-04-11T11:20:57.519Z,6.70
2023-04-11T11:23:28.257Z,3.40
2023-04-11T11:26:00.960Z,5.20
2023-04-11T11:28:32.048Z,5.70
2023-04-11T11:31:04.178Z,7.50
2023-04-11T11:33:42.199Z,5.00
2023-04-11T11:36:13.283Z,6.70
2023-04-11T11:38:46.588Z,14.60
2023-04-11T11:41:17.825Z,5.80
2023-04-11T11:43:48.369Z,5.10
2023-04-11T11:46:21.568Z,5.20
2023-04-11T11:49:01.788Z,5.00
2023-04-11T11:51:42.697Z,12.70
2023-04-11T11:54:13.828Z,5.90
2023-04-11T11:56:52.668Z,5.70
2023-04-11T11:59:29.146Z,7.10
2023-04-11T12:04:30.653Z,8.70
2023-04-11T12:07:10.079Z,13.10
2023-04-11T12:09:41.107Z,6.80
2023-04-11T12:12:12.267Z,11.40
2023-04-11T12:14:42.724Z,6.20
2023-04-11T12:17:16.216Z,6.80
2023-04-11T12:19:46.805Z,10.80
2023-04-11T12:22:17.416Z,16.50
2023-04-11T12:24:48.568Z,11.40
2023-04-11T12:27:19.719Z,8.50
2023-04-11T12:29:52.061Z,9.20
2023-04-11T12:32:27.209Z,9.40
2023-04-11T12:34:58.274Z,7.30
2023-04-11T12:37:29.220Z,6.90
2023-04-11T12:40:00.232Z,11.50
2023-04-11T12:42:32.220Z,14.70
2023-04-11T12:45:04.396Z,7.60
2023-04-11T12:47:34.887Z,11.00
2023-04-11T12:50:07.920Z,10.90
2023-04-11T12:52:42.077Z,9.40
2023-04-11T12:55:14.683Z,8.90
2023-04-11T12:57:46.007Z,6.60
2023-04-11T13:00:19.174Z,9.80
2023-04-11T13:02:51.380Z,7.00
2023-04-11T13:05:27.655Z,7.30
2023-04-11T13:07:59.705Z,6.60
2023-04-11T13:10:30.539Z,9.60
2023-04-11T13:13:11.640Z,5.00
2023-04-11T13:15:48.637Z,6.20
2023-04-11T13:18:19.226Z,8.80
2023-04-11T13:20:49.859Z,6.60
2023-04-11T13:23:20.659Z,20.60
2023-04-11T13:26:00.752Z,13.70
2023-04-11T13:28:34.828Z,5.20
2023-04-11T13:31:10.699Z,8.30
2023-04-11T13:33:41.493Z,3.90
2023-04-11T13:36:13.571Z,13.50
2023-04-11T13:38:44.375Z,11.70
2023-04-11T13:41:15.061Z,6.90
2023-04-11T13:43:50.050Z,8.50
2023-04-11T13:46:25.276Z,7.50
2023-04-11T13:48:56.695Z,5.70
2023-04-11T13:51:30.012Z,7.00
2023-04-11T13:54:02.388Z,15.10
2023-04-11T13:56:32.972Z,10.10
2023-04-11T13:59:04.279Z,6.50
2023-04-11T14:01:35.362Z,9.80
2023-04-11T14:04:21.875Z,11.30
2023-04-11T14:06:53.757Z,12.80
2023-04-11T14:09:30.672Z,13.20
2023-04-11T14:12:03.030Z,16.90
2023-04-11T14:14:34.693Z,6.20
2023-04-11T14:17:07.913Z,6.20
2023-04-11T14:19:42.407Z,7.30
2023-04-11T14:22:17.103Z,12.30
2023-04-11T14:24:50.104Z,9.20
2023-04-11T14:27:20.526Z,9.40
2023-04-11T14:29:55.413Z,8.50
2023-04-11T14:32:27.230Z,9.90
2023-04-11T14:34:58.395Z,15.60
2023-04-11T14:37:29.932Z,7.50
2023-04-11T14:40:00.916Z,10.00
2023-04-11T14:42:32.626Z,8.60
2023-04-11T14:48:55.794Z,6.80
2023-04-11T14:51:28.826Z,8.70
2023-04-11T14:53:59.990Z,7.30
2023-04-11T14:56:32.240Z,9.80
2023-04-11T14:59:03.098Z,11.30
2023-04-11T15:01:33.968Z,7.20
2023-04-11T15:04:05.011Z,12.20
2023-04-11T15:06:39.797Z,15.70
2023-04-11T15:09:19.893Z,11.20
2023-04-11T15:11:56.801Z,10.20
2023-04-11T15:14:31.234Z,8.60
2023-04-11T15:17:05.094Z,7.70
2023-04-11T15:19:43.185Z,8.60
2023-04-11T15:22:13.841Z,10.30
2023-04-11T15:24:50.730Z,13.20
2023-04-11T15:27:24.345Z,7.80
2023-04-11T15:29:59.590Z,9.10
2023-04-11T15:32:30.479Z,9.60
2023-04-11T15:35:03.985Z,12.20
2023-04-11T15:37:34.498Z,11.90
2023-04-11T15:40:12.383Z,24.20
2023-04-11T15:42:45.109Z,18.10
2023-04-11T15:45:16.916Z,20.60
2023-04-11T15:47:55.241Z,39.30
2023-04-11T15:50:27.336Z,35.20
2023-04-11T15:53:03.148Z,28.20
2023-04-11T15:55:38.241Z,17.10
2023-04-11T15:58:13.207Z,19.70
2023-04-11T16:00:44.920Z,16.20
2023-04-11T16:03:32.486Z,13.70
2023-04-11T16:06:05.549Z,9.20
2023-04-11T16:08:36.141Z,14.10
2023-04-11T16:11:08.345Z,21.60
2023-04-11T16:13:43.893Z,15.70
2023-04-11T16:16:14.682Z,19.00
2023-04-11T16:18:48.286Z,12.40
2023-04-11T16:21:21.777Z,24.20
2023-04-11T16:23:55.326Z,20.70
2023-04-11T16:26:26.865Z,17.20
2023-04-11T16:29:00.388Z,23.20
2023-04-11T16:34:51.777Z,23.00
2023-04-11T16:37:26.265Z,21.50
2023-04-11T16:40:00.255Z,17.20
2023-04-11T16:42:31.547Z,18.20
2023-04-11T16:45:06.815Z,21.70
2023-04-11T16:47:39.401Z,26.10
2023-04-11T16:50:12.525Z,12.00
2023-04-11T16:52:51.138Z,17.70
2023-04-11T16:55:23.271Z,15.90
2023-04-11T16:57:56.127Z,31.90
2023-04-11T17:00:29.733Z,17.20
2023-04-11T17:03:14.519Z,14.80
2023-04-11T17:05:57.512Z,10.80
2023-04-11T17:08:30.508Z,15.70
2023-04-11T17:11:09.113Z,24.00
2023-04-11T17:13:45.758Z,17.20
2023-04-11T17:16:21.102Z,12.30
2023-04-11T17:18:53.473Z,13.00
2023-04-11T17:21:34.095Z,16.00
2023-04-11T17:24:05.256Z,15.50
2023-04-11T17:26:41.851Z,15.40
2023-04-11T17:29:13.477Z,14.60
2023-04-11T17:31:48.504Z,17.70
2023-04-11T17:34:19.274Z,17.00
2023-04-11T17:36:50.595Z,26.10
2023-04-11T17:39:23.423Z,27.90
2023-04-11T17:41:55.565Z,23.00
2023-04-11T17:44:26.974Z,24.10
2023-04-11T17:46:58.601Z,16.10
2023-04-11T17:49:31.714Z,17.20
2023-04-11T17:52:03.234Z,20.70
2023-04-11T17:54:51.473Z,18.90
2023-04-11T17:57:41.582Z,17.80
2023-04-11T18:00:23.571Z,22.60
2023-04-11T18:03:10.313Z,13.50
2023-04-11T18:06:38.051Z,25.30
2023-04-11T18:09:32.674Z,26.20
2023-04-11T18:12:34.525Z,18.80
2023-04-11T18:15:55.174Z,21.60
2023-04-11T18:21:48.374Z,28.50
2023-04-11T18:24:23.948Z,18.40
2023-04-11T18:27:03.982Z,19.50
2023-04-11T18:29:54.166Z,26.60
2023-04-11T18:32:32.350Z,23.20
2023-04-11T18:35:30.698Z,18.10
2023-04-11T18:38:16.189Z,22.70
2023-04-11T18:40:56.535Z,18.60
2023-04-11T18:43:38.624Z,23.10
2023-04-11T18:46:28.229Z,18.70
2023-04-11T18:49:22.636Z,24.50
2023-04-11T18:52:17.092Z,22.80
2023-04-11T18:55:22.284Z,21.90
2023-04-11T18:58:15.129Z,22.30
2023-04-11T19:00:54.326Z,31.20
2023-04-11T19:03:29.031Z,27.40
2023-04-11T19:06:18.650Z,25.70
2023-04-11T19:08:55.731Z,29.00
2023-04-11T19:11:45.063Z,31.20
2023-04-11T19:15:00.787Z,24.80
2023-04-11T19:18:26.093Z,31.50
2023-04-11T19:22:05.053Z,34.50
2023-04-11T19:25:00.865Z,20.30
2023-04-11T19:28:01.348Z,24.00
2023-04-11T19:31:05.199Z,23.90
2023-04-11T19:34:01.179Z,24.00
2023-04-11T19:36:56.546Z,28.20
2023-04-11T19:39:45.952Z,37.60
2023-04-11T19:42:43.322Z,24.00
2023-04-11T19:46:05.103Z,29.30
2023-04-11T19:48:44.545Z,29.80
2023-04-11T19:51:21.848Z,30.70
2023-04-11T19:53:59.428Z,26.70
2023-04-11T19:56:33.387Z,26.60
2023-04-11T19:59:04.701Z,20.80
2023-04-11T20:01:36.513Z,31.50
2023-04-11T20:04:32.500Z,21.90
2023-04-11T20:07:11.520Z,33.20
2023-04-11T20:09:56.672Z,32.80
2023-04-11T20:12:39.991Z,29.30
2023-04-11T20:15:55.925Z,27.70
2023-04-11T20:18:37.641Z,17.70
2023-04-11T20:21:17.865Z,21.80
2023-04-11T20:23:51.977Z,22.60
2023-04-11T20:26:29.025Z,28.10
2023-04-11T20:29:01.695Z,25.30
2023-04-11T20:31:43.929Z,24.70
2023-04-11T20:34:19.139Z,24.40
2023-04-11T20:36:56.759Z,30.90
2023-04-11T20:42:10.663Z,18.20
2023-04-11T20:44:50.426Z,28.70
2023-04-11T20:47:38.097Z,26.70
2023-04-11T20:50:21.399Z,24.60
2023-04-11T20:53:00.987Z,24.80
2023-04-11T20:55:43.088Z,26.00
2023-04-11T20:58:26.278Z,23.90
2023-04-11T21:01:00.326Z,19.90
2023-04-11T21:03:36.508Z,26.70
2023-04-11T21:06:11.723Z,28.80
2023-04-11T21:08:46.700Z,33.50
2023-04-11T21:11:23.497Z,26.40
2023-04-11T21:13:56.036Z,36.00
2023-04-11T21:16:29.208Z,26.80
2023-04-11T21:19:04.160Z,24.00
2023-04-11T21:21:46.858Z,22.20
2023-04-11T21:24:26.789Z,29.10
2023-04-11T21:27:00.069Z,26.90
2023-04-11T21:29:31.941Z,29.80
2023-04-11T21:32:03.569Z,23.80
2023-04-11T21:34:34.997Z,25.60
2023-04-11T21:37:05.661Z,26.80
2023-04-11T21:39:38.458Z,26.30
2023-04-11T21:42:09.214Z,30.00
2023-04-11T21:44:39.838Z,21.60
2023-04-11T21:47:10.628Z,28.00
2023-04-11T21:49:41.429Z,30.70
2023-04-11T21:52:12.057Z,28.50
2023-04-11T21:54:44.671Z,25.50
2023-04-11T21:57:15.938Z,29.50
2023-04-11T21:59:51.884Z,27.60
2023-04-11T22:02:29.180Z,25.80
2023-04-11T22:05:07.332Z,24.40
2023-04-11T22:07:39.050Z,20.90
2023-04-11T22:10:11.930Z,26.20
2023-04-11T22:12:45.915Z,28.70
2023-04-11T22:15:18.779Z,27.80
2023-04-11T22:17:50.498Z,23.50
2023-04-11T22:20:24.049Z,26.10
2023-04-11T22:22:57.755Z,25.50
2023-04-11T22:25:32.959Z,21.40
2023-04-11T22:28:04.761Z,23.60
2023-04-11T22:30:37.913Z,21.10
2023-04-11T22:33:13.522Z,21.40
2023-04-11T22:35:47.294Z,33.20
2023-04-11T22:38:17.743Z,17.70
2023-04-11T22:40:48.818Z,29.90
2023-04-11T22:43:19.371Z,22.70
2023-04-11T22:45:49.713Z,19.80
2023-04-11T22:48:20.602Z,27.50
2023-04-11T22:50:52.742Z,22.40
2023-04-11T22:53:24.742Z,25.20
2023-04-11T22:55:55.540Z,21.70
2023-04-11T22:58:26.012Z,26.70
2023-04-11T23:00:56.405Z,29.40
2023-04-11T23:06:17.029Z,25.80
2023-04-11T23:08:47.705Z,27.00
2023-04-11T23:11:18.172Z,27.30
2023-04-11T23:13:49.992Z,22.20
2023-04-11T23:16:23.275Z,24.30
2023-04-11T23:19:04.559Z,24.40
2023-04-11T23:21:43.004Z,21.00
2023-04-11T23:24:13.747Z,24.90
2023-04-11T23:26:45.152Z,30.10
2023-04-11T23:29:22.069Z,39.90
2023-04-11T23:31:53.298Z,32.10
2023-04-11T23:34:24.155Z,23.70
2023-04-11T23:36:57.856Z,27.20
2023-04-11T23:39:28.286Z,20.30
2023-04-11T23:41:58.661Z,25.40
2023-04-11T23:44:28.802Z,21.00
2023-04-11T23:47:00.681Z,23.40
2023-04-11T23:49:32.550Z,22.60
2023-04-11T23:52:03.564Z,21.20
2023-04-11T23:54:36.200Z,23.60
2023-04-11T23:57:07.033Z,24.20
2023-04-11T23:59:38.221Z,20.60
